createdAt,value
2023-05-16T00:00:35.507Z,98716.81
2023-05-16T00:01:40.334Z,98714.13
2023-05-16T00:02:44.989Z,98715.81
2023-05-16T00:03:53.685Z,98720.16
2023-05-16T00:04:58.283Z,98723.56
2023-05-16T00:06:02.737Z,98721.84
2023-05-16T00:07:07.651Z,98729.84
2023-05-16T00:08:12.526Z,98729.16
2023-05-16T00:09:22.473Z,98724.13
2023-05-16T00:10:27.693Z,98728.34
2023-05-16T00:11:33.284Z,98715.00
2023-05-16T00:12:40.075Z,98727.50
2023-05-16T00:13:48.974Z,98724.53
2023-05-16T00:14:53.364Z,98721.44
2023-05-16T00:16:03.938Z,98722.88
2023-05-16T00:17:14.909Z,98730.97
2023-05-16T00:18:19.938Z,98728.31
2023-05-16T00:19:24.362Z,98728.19
2023-05-16T00:20:30.454Z,98736.06
2023-05-16T00:21:34.639Z,98732.66
2023-05-16T00:22:39.106Z,98736.06
2023-05-16T00:23:43.514Z,98738.16
2023-05-16T00:24:47.721Z,98735.78
2023-05-16T00:25:59.752Z,98740.28
2023-05-16T00:27:04.361Z,98740.41
2023-05-16T00:28:09.770Z,98737.03
2023-05-16T00:29:13.813Z,98739.69
2023-05-16T00:30:19.002Z,98752.47
2023-05-16T00:31:23.849Z,98748.69
2023-05-16T00:32:28.646Z,98747.00
2023-05-16T00:33:35.306Z,98764.25
2023-05-16T00:34:40.685Z,98748.13
2023-05-16T00:35:48.046Z,98751.78
2023-05-16T00:38:11.796Z,98751.78
2023-05-16T00:39:15.892Z,98745.19
2023-05-16T00:40:21.718Z,98750.22
2023-05-16T00:41:26.539Z,98749.97
2023-05-16T00:42:31.149Z,98746.56
2023-05-16T00:43:37.545Z,98749.38
2023-05-16T00:44:41.943Z,98745.88
2023-05-16T00:45:47.947Z,98746.84
2023-05-16T00:46:54.851Z,98753.88
2023-05-16T00:48:01.660Z,98750.50
2023-05-16T00:49:10.015Z,98756.84
2023-05-16T00:50:14.550Z,98754.84
2023-05-16T00:51:20.119Z,98752.19
2023-05-16T00:52:24.883Z,98757.38
2023-05-16T00:53:29.380Z,98757.38
2023-05-16T00:54:35.082Z,98758.38
2023-05-16T00:55:40.179Z,98762.44
2023-05-16T00:56:44.351Z,98764.09
2023-05-16T00:57:49.917Z,98764.66
2023-05-16T00:58:57.797Z,98763.28
2023-05-16T01:00:28.573Z,98765.78
2023-05-16T01:01:35.349Z,98764.66
2023-05-16T01:02:44.885Z,98774.38
2023-05-16T01:03:50.373Z,98773.09
2023-05-16T01:04:55.715Z,98769.00
2023-05-16T01:06:01.872Z,98772.25
2023-05-16T01:07:07.316Z,98758.19
2023-05-16T01:08:15.858Z,98763.41
2023-05-16T01:09:22.793Z,98757.63
2023-05-16T01:11:31.900Z,98759.75
2023-05-16T01:13:00.578Z,98750.84
2023-05-16T01:14:42.767Z,98762.66
2023-05-16T01:16:24.073Z,98762.97
2023-05-16T01:17:46.596Z,98753.53
2023-05-16T01:19:43.582Z,98752.00
2023-05-16T01:21:02.336Z,98754.22
2023-05-16T01:22:26.912Z,98748.06
2023-05-16T01:24:23.977Z,98758.59
2023-05-16T01:25:57.750Z,98762.38
2023-05-16T01:27:06.306Z,98755.88
2023-05-16T01:28:12.142Z,98760.38
2023-05-16T01:29:17.070Z,98765.47
2023-05-16T01:30:21.724Z,98768.25
2023-05-16T01:31:26.229Z,98754.78
2023-05-16T01:32:30.536Z,98749.72
2023-05-16T01:33:35.631Z,98757.84
2023-05-16T01:34:40.432Z,98761.38
2023-05-16T01:36:15.929Z,98752.78
2023-05-16T01:37:38.690Z,98757.00
2023-05-16T01:39:18.014Z,98757.00
2023-05-16T01:40:46.577Z,98759.09
2023-05-16T01:42:06.697Z,98758.00
2023-05-16T01:43:21.811Z,98758.13
2023-05-16T01:45:04.346Z,98763.59
2023-05-16T01:46:15.799Z,98758.53
2023-05-16T01:47:25.723Z,98747.03
2023-05-16T01:48:53.596Z,98754.19
2023-05-16T01:50:25.933Z,98753.75
2023-05-16T01:51:35.227Z,98757.25
2023-05-16T01:52:48.611Z,98749.41
2023-05-16T01:53:59.026Z,98753.03
2023-05-16T01:55:05.179Z,98752.91
2023-05-16T01:56:17.540Z,98752.31
2023-05-16T01:57:28.602Z,98753.28
2023-05-16T01:58:36.913Z,98753.03
2023-05-16T01:59:44.981Z,98754.03
2023-05-16T02:00:49.144Z,98754.03
2023-05-16T02:01:58.433Z,98747.72
2023-05-16T02:03:04.197Z,98746.28
2023-05-16T02:04:09.819Z,98748.38
2023-05-16T02:05:16.962Z,98754.28
2023-05-16T02:06:22.369Z,98747.25
2023-05-16T02:07:27.514Z,98751.59
2023-05-16T02:08:33.921Z,98754.97
2023-05-16T02:09:40.196Z,98754.41
2023-05-16T02:10:45.299Z,98756.50
2023-05-16T02:11:49.554Z,98752.97
2023-05-16T02:12:54.472Z,98763.78
2023-05-16T02:13:58.801Z,98755.19
2023-05-16T02:15:03.255Z,98763.94
2023-05-16T02:16:11.992Z,98757.47
2023-05-16T02:17:16.296Z,98754.59
2023-05-16T02:18:20.459Z,98756.28
2023-05-16T02:19:24.884Z,98755.72
2023-05-16T02:20:29.294Z,98756.13
2023-05-16T02:21:33.549Z,98753.13
2023-05-16T02:22:44.542Z,98757.63
2023-05-16T02:23:48.794Z,98758.59
2023-05-16T02:24:53.099Z,98756.09
2023-05-16T02:25:57.336Z,98760.56
2023-05-16T02:27:02.340Z,98757.06
2023-05-16T02:28:07.184Z,98760.81
2023-05-16T02:29:11.862Z,98758.16
2023-05-16T02:30:16.236Z,98759.41
2023-05-16T02:31:33.009Z,98752.13
2023-05-16T02:32:41.443Z,98763.47
2023-05-16T02:33:46.103Z,98764.59
2023-05-16T02:34:50.503Z,98758.44
2023-05-16T02:35:55.642Z,98760.13
2023-05-16T02:36:59.737Z,98761.78
2023-05-16T02:38:03.985Z,98760.13
2023-05-16T02:39:10.731Z,98764.59
2023-05-16T02:40:15.572Z,98763.47
2023-05-16T02:41:22.259Z,98769.09
2023-05-16T02:42:32.573Z,98758.94
2023-05-16T02:43:38.107Z,98765.13
2023-05-16T02:44:42.285Z,98764.28
2023-05-16T02:45:46.931Z,98763.97
2023-05-16T02:46:51.518Z,98765.06
2023-05-16T02:47:55.762Z,98765.78
2023-05-16T02:49:00.885Z,98765.78
2023-05-16T02:50:05.698Z,98765.31
2023-05-16T02:51:10.174Z,98767.03
2023-05-16T02:52:14.268Z,98765.22
2023-05-16T02:53:20.820Z,98776.09
2023-05-16T02:54:25.518Z,98769.38
2023-05-16T02:55:30.268Z,98768.63
2023-05-16T02:56:34.485Z,98774.09
2023-05-16T02:57:38.651Z,98773.13
2023-05-16T02:58:43.218Z,98774.69
2023-05-16T02:59:47.813Z,98779.19
2023-05-16T03:00:53.243Z,98781.94
2023-05-16T03:01:58.038Z,98794.19
2023-05-16T03:03:12.516Z,98787.41
2023-05-16T03:04:16.764Z,98792.16
2023-05-16T03:05:23.429Z,98789.94
2023-05-16T03:06:28.332Z,98784.19
2023-05-16T03:07:33.532Z,98784.63
2023-05-16T03:08:38.214Z,98784.38
2023-05-16T03:09:43.798Z,98784.38
2023-05-16T03:10:47.999Z,98777.75
2023-05-16T03:11:52.387Z,98781.09
2023-05-16T03:12:56.395Z,98767.09
2023-05-16T03:14:01.966Z,98774.22
2023-05-16T03:15:09.675Z,98769.75
2023-05-16T03:16:16.081Z,98769.75
2023-05-16T03:17:20.915Z,98769.75
2023-05-16T03:18:26.445Z,98774.94
2023-05-16T03:19:34.707Z,98769.47
2023-05-16T03:20:39.253Z,98768.78
2023-05-16T03:21:43.735Z,98763.44
2023-05-16T03:22:48.039Z,98767.56
2023-05-16T03:23:52.497Z,98774.69
2023-05-16T03:24:57.699Z,98772.16
2023-05-16T03:26:01.916Z,98775.78
2023-05-16T03:27:07.262Z,98774.81
2023-05-16T03:28:13.256Z,98774.81
2023-05-16T03:29:19.740Z,98774.56
2023-05-16T03:30:24.143Z,98781.84
2023-05-16T03:31:28.395Z,98771.91
2023-05-16T03:32:33.710Z,98773.00
2023-05-16T03:33:37.659Z,98779.88
2023-05-16T03:34:41.602Z,98775.13
2023-05-16T03:35:46.907Z,98777.78
2023-05-16T03:36:51.338Z,98777.94
2023-05-16T03:37:55.749Z,98781.56
2023-05-16T03:39:06.123Z,98779.19
2023-05-16T03:40:12.987Z,98786.63
2023-05-16T03:41:17.492Z,98790.03
2023-05-16T03:42:23.648Z,98793.66
2023-05-16T03:43:28.211Z,98798.72
2023-05-16T03:44:35.826Z,98803.78
2023-05-16T03:45:40.869Z,98808.16
2023-05-16T03:46:45.261Z,98808.00
2023-05-16T03:47:52.861Z,98804.84
2023-05-16T03:48:57.104Z,98796.63
2023-05-16T03:50:03.098Z,98801.31
2023-05-16T03:51:10.352Z,98792.06
2023-05-16T03:52:14.602Z,98802.50
2023-05-16T03:53:25.486Z,98797.41
2023-05-16T03:54:34.326Z,98795.44
2023-05-16T03:55:38.949Z,98793.19
2023-05-16T03:56:43.458Z,98798.25
2023-05-16T03:57:48.153Z,98798.38
2023-05-16T03:58:52.309Z,98798.56
2023-05-16T03:59:58.026Z,98787.91
2023-05-16T04:01:02.886Z,98796.88
2023-05-16T04:02:08.953Z,98793.84
2023-05-16T04:03:13.198Z,98798.03
2023-05-16T04:04:17.396Z,98800.31
2023-05-16T04:05:22.029Z,98799.22
2023-05-16T04:06:26.493Z,98793.88
2023-05-16T04:07:31.494Z,98796.41
2023-05-16T04:08:39.782Z,98791.66
2023-05-16T04:09:44.240Z,98789.00
2023-05-16T04:10:48.716Z,98796.25
2023-05-16T04:11:52.672Z,98802.22
2023-05-16T04:12:57.010Z,98802.22
2023-05-16T04:14:01.929Z,98801.81
2023-05-16T04:15:07.481Z,98804.34
2023-05-16T04:16:11.788Z,98805.91
2023-05-16T04:17:16.507Z,98810.84
2023-05-16T04:18:25.645Z,98813.38
2023-05-16T04:19:30.337Z,98810.69
2023-05-16T04:20:35.289Z,98811.41
2023-05-16T04:21:40.231Z,98812.56
2023-05-16T04:22:47.099Z,98803.44
2023-05-16T04:23:51.573Z,98803.88
2023-05-16T04:24:55.773Z,98796.88
2023-05-16T04:26:00.272Z,98805.31
2023-05-16T04:27:05.247Z,98802.06
2023-05-16T04:28:09.362Z,98797.19
2023-05-16T04:29:14.942Z,98802.13
2023-05-16T04:30:19.773Z,98810.66
2023-05-16T04:31:30.159Z,98811.50
2023-05-16T04:32:37.280Z,98815.47
2023-05-16T04:33:41.790Z,98822.34
2023-05-16T04:34:47.084Z,98815.91
2023-05-16T04:35:51.246Z,98810.56
2023-05-16T04:36:59.165Z,98820.56
2023-05-16T04:38:03.336Z,98825.06
2023-05-16T04:39:12.779Z,98827.44
2023-05-16T04:40:17.424Z,98821.81
2023-05-16T04:41:23.023Z,98825.63
2023-05-16T04:42:27.135Z,98825.22
2023-05-16T04:43:31.198Z,98827.88
2023-05-16T04:44:35.234Z,98830.00
2023-05-16T04:45:43.037Z,98828.63
2023-05-16T04:46:47.061Z,98827.09
2023-05-16T04:47:51.666Z,98833.28
2023-05-16T04:48:56.197Z,98832.31
2023-05-16T04:50:03.459Z,98828.13
2023-05-16T04:51:12.253Z,98835.00
2023-05-16T04:52:17.086Z,98838.50
2023-05-16T04:53:21.864Z,98840.59
2023-05-16T04:54:27.193Z,98838.03
2023-05-16T04:55:32.457Z,98841.63
2023-05-16T04:56:38.335Z,98846.50
2023-05-16T04:57:42.546Z,98845.63
2023-05-16T04:58:46.986Z,98847.94
2023-05-16T04:59:52.097Z,98841.00
2023-05-16T05:00:56.679Z,98845.66
2023-05-16T05:02:04.565Z,98843.31
2023-05-16T05:03:10.229Z,98842.78
2023-05-16T05:04:14.583Z,98842.25
2023-05-16T05:05:23.090Z,98840.81
2023-05-16T05:06:27.975Z,98842.97
2023-05-16T05:07:34.178Z,98832.22
2023-05-16T05:08:39.827Z,98843.59
2023-05-16T05:09:45.097Z,98836.66
2023-05-16T05:10:49.143Z,98843.28
2023-05-16T05:11:53.799Z,98846.19
2023-05-16T05:12:58.557Z,98841.91
2023-05-16T05:14:03.917Z,98846.06
2023-05-16T05:15:09.783Z,98838.22
2023-05-16T05:16:14.546Z,98829.19
2023-05-16T05:17:20.919Z,98832.59
2023-05-16T05:18:25.214Z,98833.78
2023-05-16T05:19:29.285Z,98841.53
2023-05-16T05:20:33.655Z,98826.63
2023-05-16T05:21:40.941Z,98829.16
2023-05-16T05:22:49.208Z,98833.34
2023-05-16T05:23:54.739Z,98834.84
2023-05-16T05:24:58.865Z,98834.47
2023-05-16T05:26:06.876Z,98840.50
2023-05-16T05:27:11.330Z,98839.81
2023-05-16T05:28:15.958Z,98836.41
2023-05-16T05:29:23.328Z,98834.66
2023-05-16T05:30:37.239Z,98841.47
2023-05-16T05:31:41.832Z,98843.94
2023-05-16T05:32:47.970Z,98840.50
2023-05-16T05:33:52.793Z,98839.66
2023-05-16T05:34:57.501Z,98841.38
2023-05-16T05:36:04.010Z,98840.59
2023-05-16T05:37:09.173Z,98837.84
2023-05-16T05:38:13.468Z,98839.31
2023-05-16T05:39:17.656Z,98850.84
2023-05-16T05:40:21.995Z,98857.19
2023-05-16T05:41:29.405Z,98852.78
2023-05-16T05:42:34.072Z,98848.28
2023-05-16T05:43:38.871Z,98847.59
2023-05-16T05:44:43.191Z,98842.44
2023-05-16T05:45:47.709Z,98847.16
2023-05-16T05:46:51.774Z,98853.56
2023-05-16T05:47:56.007Z,98851.31
2023-05-16T05:49:01.565Z,98848.50
2023-05-16T05:50:07.668Z,98849.00
2023-05-16T05:51:14.503Z,98850.47
2023-05-16T05:52:19.543Z,98845.91
2023-05-16T05:53:23.870Z,98853.84
2023-05-16T05:54:31.551Z,98848.16
2023-05-16T05:55:35.653Z,98849.91
2023-05-16T05:56:39.971Z,98849.25
2023-05-16T05:57:44.201Z,98849.63
2023-05-16T05:58:49.668Z,98845.94
2023-05-16T05:59:54.668Z,98843.66
2023-05-16T06:00:58.579Z,98847.16
2023-05-16T06:02:02.719Z,98841.34
2023-05-16T06:03:08.311Z,98846.50
2023-05-16T06:04:13.734Z,98840.31
2023-05-16T06:05:18.805Z,98848.56
2023-05-16T06:06:22.893Z,98844.53
2023-05-16T06:07:26.977Z,98846.50
2023-05-16T06:08:31.561Z,98836.97
2023-05-16T06:09:35.453Z,98835.94
2023-05-16T06:10:39.740Z,98841.03
2023-05-16T06:11:46.093Z,98837.84
2023-05-16T06:12:50.424Z,98842.09
2023-05-16T06:13:54.475Z,98837.94
2023-05-16T06:14:59.396Z,98830.59
2023-05-16T06:16:03.728Z,98836.91
2023-05-16T06:17:09.776Z,98831.59
2023-05-16T06:18:15.634Z,98835.81
2023-05-16T06:19:20.419Z,98844.13
2023-05-16T06:20:25.005Z,98843.19
2023-05-16T06:21:31.456Z,98844.69
2023-05-16T06:22:35.717Z,98853.72
2023-05-16T06:23:39.989Z,98855.22
2023-05-16T06:24:44.531Z,98850.75
2023-05-16T06:25:52.206Z,98855.97
2023-05-16T06:26:56.667Z,98859.25
2023-05-16T06:28:04.923Z,98852.63
2023-05-16T06:29:09.175Z,98855.97
2023-05-16T06:30:13.904Z,98853.69
2023-05-16T06:31:19.575Z,98851.91
2023-05-16T06:32:26.782Z,98855.97
2023-05-16T06:33:42.940Z,98857.09
2023-05-16T06:34:54.061Z,98851.47
2023-05-16T06:35:58.094Z,98857.59
2023-05-16T06:37:03.845Z,98852.97
2023-05-16T06:38:08.133Z,98848.69
2023-05-16T06:39:14.530Z,98856.78
2023-05-16T06:40:22.151Z,98844.88
2023-05-16T06:41:26.737Z,98849.09
2023-05-16T06:42:31.194Z,98846.19
2023-05-16T06:43:37.161Z,98849.97
2023-05-16T06:44:42.312Z,98845.25
2023-05-16T06:45:49.983Z,98844.88
2023-05-16T06:46:54.815Z,98848.03
2023-05-16T06:47:59.149Z,98843.88
2023-05-16T06:49:03.549Z,98849.41
2023-05-16T06:50:11.301Z,98853.16
2023-05-16T06:51:15.600Z,98845.06
2023-05-16T06:52:20.333Z,98854.41
2023-05-16T06:53:25.324Z,98857.56
2023-05-16T06:54:39.706Z,98852.41
2023-05-16T06:55:45.257Z,98848.50
2023-05-16T06:56:49.340Z,98847.66
2023-05-16T06:57:53.554Z,98847.19
2023-05-16T06:58:58.049Z,98855.53
2023-05-16T07:04:42.020Z,98858.16
2023-05-16T07:05:46.920Z,98852.56
2023-05-16T07:06:59.740Z,98861.53
2023-05-16T07:08:07.052Z,98851.97
2023-05-16T07:09:15.484Z,98858.50
2023-05-16T07:10:22.968Z,98851.50
2023-05-16T07:11:28.137Z,98864.69
2023-05-16T07:12:32.261Z,98862.91
2023-05-16T07:13:36.475Z,98871.69
2023-05-16T07:14:40.928Z,98867.09
2023-05-16T07:17:05.876Z,98875.50
2023-05-16T07:18:16.825Z,98875.72
2023-05-16T07:19:21.604Z,98870.84
2023-05-16T07:20:26.189Z,98869.81
2023-05-16T07:21:43.289Z,98871.47
2023-05-16T07:22:49.653Z,98880.09
2023-05-16T07:23:54.263Z,98875.34
2023-05-16T07:25:01.523Z,98880.38
2023-05-16T07:26:06.258Z,98874.09
2023-05-16T07:27:14.137Z,98883.81
2023-05-16T07:28:18.186Z,98885.03
2023-05-16T07:29:23.343Z,98883.97
2023-05-16T07:30:27.636Z,98883.06
2023-05-16T07:31:31.980Z,98892.09
2023-05-16T07:32:36.240Z,98879.31
2023-05-16T07:33:46.182Z,98887.63
2023-05-16T07:34:50.245Z,98883.75
2023-05-16T07:36:07.932Z,98876.84
2023-05-16T07:37:19.191Z,98879.94
2023-05-16T07:38:23.516Z,98876.13
2023-05-16T07:39:29.523Z,98882.75
2023-05-16T07:40:33.691Z,98883.28
2023-05-16T07:41:40.209Z,98886.84
2023-05-16T07:42:45.063Z,98878.34
2023-05-16T07:43:49.263Z,98869.94
2023-05-16T07:44:55.898Z,98867.31
2023-05-16T07:45:59.944Z,98860.44
2023-05-16T07:47:07.233Z,98870.53
2023-05-16T07:48:11.528Z,98869.47
2023-05-16T07:49:28.087Z,98874.41
2023-05-16T07:50:32.955Z,98883.84
2023-05-16T07:51:42.703Z,98887.41
2023-05-16T07:52:47.432Z,98886.03
2023-05-16T07:53:52.366Z,98889.47
2023-05-16T07:54:56.673Z,98887.44
2023-05-16T07:56:01.643Z,98889.09
2023-05-16T07:57:09.850Z,98897.78
2023-05-16T07:58:14.691Z,98899.81
2023-05-16T07:59:19.545Z,98898.25
2023-05-16T08:00:25.571Z,98902.22
2023-05-16T08:01:30.438Z,98901.50
2023-05-16T08:02:36.208Z,98901.66
2023-05-16T08:03:41.185Z,98908.63
2023-05-16T08:04:46.924Z,98921.53
2023-05-16T08:09:34.051Z,98917.38
2023-05-16T08:10:38.344Z,98916.38
2023-05-16T08:11:45.474Z,98912.69
2023-05-16T08:14:08.567Z,98906.75
2023-05-16T08:15:13.899Z,98906.81
2023-05-16T08:16:21.252Z,98902.22
2023-05-16T08:17:26.030Z,98897.50
2023-05-16T08:18:34.128Z,98905.47
2023-05-16T08:19:38.506Z,98904.09
2023-05-16T08:20:43.810Z,98893.00
2023-05-16T08:21:48.603Z,98892.31
2023-05-16T08:22:56.910Z,98893.53
2023-05-16T08:24:02.590Z,98891.22
2023-05-16T08:25:09.458Z,98889.41
2023-05-16T08:26:14.714Z,98887.00
2023-05-16T08:27:21.155Z,98891.13
2023-05-16T08:28:29.073Z,98883.69
2023-05-16T08:29:52.290Z,98897.66
2023-05-16T08:31:00.774Z,98886.06
2023-05-16T08:32:07.016Z,98877.75
2023-05-16T08:33:11.339Z,98891.78
2023-05-16T08:34:16.701Z,98902.53
2023-05-16T08:35:21.185Z,98908.41
2023-05-16T08:36:26.520Z,98913.75
2023-05-16T08:37:35.391Z,98916.41
2023-05-16T08:38:39.992Z,98911.97
2023-05-16T08:39:47.416Z,98912.03
2023-05-16T08:40:57.486Z,98909.09
2023-05-16T08:42:05.808Z,98903.44
2023-05-16T08:43:11.048Z,98911.91
2023-05-16T08:44:22.289Z,98909.97
2023-05-16T08:49:02.374Z,98922.09
2023-05-16T08:50:12.726Z,98913.97
2023-05-16T08:51:25.559Z,98917.72
2023-05-16T08:52:33.125Z,98915.91
2023-05-16T08:53:58.929Z,98910.41
2023-05-16T08:56:48.317Z,98915.25
2023-05-16T08:57:55.164Z,98913.16
2023-05-16T09:00:18.815Z,98907.69
2023-05-16T09:01:24.174Z,98905.59
2023-05-16T09:02:33.503Z,98904.34
2023-05-16T09:03:39.478Z,98899.19
2023-05-16T09:04:48.528Z,98900.91
2023-05-16T09:05:54.109Z,98902.34
2023-05-16T09:07:03.184Z,98906.94
2023-05-16T09:08:29.425Z,98895.91
2023-05-16T09:09:37.828Z,98898.78
2023-05-16T09:10:45.001Z,98903.38
2023-05-16T09:11:51.153Z,98899.59
2023-05-16T09:12:58.842Z,98905.03
2023-05-16T09:14:05.525Z,98907.13
2023-05-16T09:15:11.852Z,98911.75
2023-05-16T09:16:22.179Z,98908.44
2023-05-16T09:17:38.814Z,98906.53
2023-05-16T09:22:06.181Z,98911.16
2023-05-16T09:23:13.813Z,98917.81
2023-05-16T09:27:40.102Z,98922.22
2023-05-16T09:28:46.488Z,98923.69
2023-05-16T09:29:57.646Z,98924.94
2023-05-16T09:31:03.839Z,98921.81
2023-05-16T09:32:17.944Z,98918.47
2023-05-16T09:33:29.622Z,98920.56
2023-05-16T09:37:57.280Z,98903.03
2023-05-16T09:39:03.904Z,98903.41
2023-05-16T09:40:12.574Z,98909.88
2023-05-16T09:41:17.772Z,98904.88
2023-05-16T09:42:27.725Z,98907.81
2023-05-16T09:43:33.271Z,98906.94
2023-05-16T09:44:39.015Z,98908.00
2023-05-16T09:45:48.475Z,98902.09
2023-05-16T09:46:55.894Z,98903.16
2023-05-16T09:49:46.943Z,98902.09
2023-05-16T09:51:09.600Z,98906.69
2023-05-16T09:52:23.672Z,98892.69
2023-05-16T09:53:34.075Z,98892.28
2023-05-16T09:54:38.292Z,98894.75
2023-05-16T09:55:45.334Z,98902.47
2023-05-16T09:56:52.979Z,98900.59
2023-05-16T09:57:59.405Z,98899.13
2023-05-16T09:59:12.610Z,98898.06
2023-05-16T10:00:21.429Z,98898.66
2023-05-16T10:04:41.013Z,98888.00
2023-05-16T10:05:49.715Z,98889.47
2023-05-16T10:07:02.800Z,98884.50
2023-05-16T10:08:10.404Z,98888.88
2023-05-16T10:09:18.102Z,98889.09
2023-05-16T10:10:24.833Z,98879.44
2023-05-16T10:11:29.960Z,98882.56
2023-05-16T10:12:37.949Z,98884.44
2023-05-16T10:13:42.078Z,98876.91
2023-05-16T10:14:51.005Z,98885.69
2023-05-16T10:16:09.415Z,98881.66
2023-05-16T10:17:16.968Z,98881.41
2023-05-16T10:18:29.525Z,98885.38
2023-05-16T10:19:42.123Z,98891.84
2023-05-16T10:20:55.128Z,98884.72
2023-05-16T10:22:05.508Z,98887.38
2023-05-16T10:23:32.233Z,98874.25
2023-05-16T10:24:52.667Z,98873.38
2023-05-16T10:25:59.569Z,98880.03
2023-05-16T10:27:06.695Z,98868.69
2023-05-16T10:28:17.331Z,98877.34
2023-05-16T10:29:53.636Z,98879.56
2023-05-16T10:31:12.650Z,98868.50
2023-05-16T10:32:26.905Z,98875.28
2023-05-16T10:34:02.493Z,98876.28
2023-05-16T10:38:51.794Z,98875.16
2023-05-16T10:40:00.583Z,98872.72
2023-05-16T10:41:14.440Z,98867.03
2023-05-16T10:42:28.168Z,98857.84
2023-05-16T10:43:37.051Z,98863.25
2023-05-16T10:45:01.867Z,98856.16
2023-05-16T10:46:28.965Z,98855.06
2023-05-16T10:47:37.740Z,98853.00
2023-05-16T10:48:47.068Z,98851.53
2023-05-16T10:49:55.963Z,98856.16
2023-05-16T10:51:11.600Z,98848.88
2023-05-16T10:52:18.952Z,98865.91
2023-05-16T10:54:26.939Z,98857.31
2023-05-16T10:55:33.059Z,98859.66
2023-05-16T10:56:39.027Z,98863.84
2023-05-16T10:57:48.151Z,98861.59
2023-05-16T10:58:57.228Z,98867.00
2023-05-16T11:00:17.003Z,98859.72
2023-05-16T11:01:36.419Z,98857.25
2023-05-16T11:03:33.415Z,98860.97
2023-05-16T11:04:55.878Z,98859.50
2023-05-16T11:06:02.576Z,98851.78
2023-05-16T11:07:10.082Z,98856.38
2023-05-16T11:08:24.030Z,98852.16
2023-05-16T11:09:30.589Z,98858.97
2023-05-16T11:10:37.543Z,98861.47
2023-05-16T11:13:27.506Z,98863.16
2023-05-16T11:14:45.614Z,98869.03
2023-05-16T11:15:50.936Z,98863.59
2023-05-16T11:17:09.973Z,98868.19
2023-05-16T11:18:20.107Z,98862.06
2023-05-16T11:19:47.746Z,98868.28
2023-05-16T11:20:53.385Z,98871.00
2023-05-16T11:22:20.327Z,98869.97
2023-05-16T11:23:26.559Z,98866.16
2023-05-16T11:24:32.547Z,98868.66
2023-05-16T11:27:03.093Z,98866.34
2023-05-16T11:28:13.964Z,98867.34
2023-05-16T11:29:19.030Z,98865.59
2023-05-16T11:30:27.707Z,98868.75
2023-05-16T11:31:47.911Z,98870.41
2023-05-16T11:32:59.083Z,98873.06
2023-05-16T11:34:07.355Z,98869.56
2023-05-16T11:35:18.758Z,98865.78
2023-05-16T11:36:31.237Z,98863.72
2023-05-16T11:38:05.378Z,98865.97
2023-05-16T11:39:11.070Z,98867.28
2023-05-16T11:40:20.211Z,98863.00
2023-05-16T11:41:30.985Z,98865.91
2023-05-16T11:42:43.700Z,98862.09
2023-05-16T11:44:09.354Z,98868.28
2023-05-16T11:45:34.848Z,98865.44
2023-05-16T11:46:45.376Z,98871.06
2023-05-16T11:47:56.477Z,98867.25
2023-05-16T11:49:01.015Z,98865.69
2023-05-16T11:50:32.340Z,98864.38
2023-05-16T11:51:47.063Z,98878.09
2023-05-16T11:52:58.887Z,98876.25
2023-05-16T11:54:28.121Z,98885.09
2023-05-16T11:55:42.437Z,98878.03
2023-05-16T11:57:20.319Z,98876.28
2023-05-16T11:58:31.139Z,98884.31
2023-05-16T11:59:40.289Z,98880.97
2023-05-16T12:00:53.774Z,98881.72
2023-05-16T12:02:21.467Z,98880.59
2023-05-16T12:03:27.101Z,98883.09
2023-05-16T12:04:46.148Z,98885.81
2023-05-16T12:06:02.537Z,98884.84
2023-05-16T12:10:39.229Z,98884.94
2023-05-16T12:11:45.702Z,98887.84
2023-05-16T12:12:57.734Z,98885.88
2023-05-16T12:17:29.996Z,98900.41
2023-05-16T12:18:56.453Z,98882.97
2023-05-16T12:20:29.914Z,98885.97
2023-05-16T12:21:40.243Z,98885.97
2023-05-16T12:22:51.110Z,98892.84
2023-05-16T12:27:39.936Z,98893.22
2023-05-16T12:28:53.546Z,98891.34
2023-05-16T12:30:28.043Z,98891.88
2023-05-16T12:31:40.736Z,98886.28
2023-05-16T12:33:56.726Z,98889.19
2023-05-16T12:35:02.815Z,98888.34
2023-05-16T12:36:19.140Z,98885.66
2023-05-16T12:37:28.464Z,98882.94
2023-05-16T12:38:38.206Z,98891.41
2023-05-16T12:40:01.135Z,98885.19
2023-05-16T12:41:06.689Z,98885.50
2023-05-16T12:45:58.695Z,98879.88
2023-05-16T12:47:04.124Z,98877.03
2023-05-16T12:48:54.330Z,98876.00
2023-05-16T12:50:19.250Z,98877.38
2023-05-16T12:51:34.707Z,98867.31
2023-05-16T12:53:10.868Z,98872.69
2023-05-16T12:54:24.174Z,98870.84
2023-05-16T12:55:28.897Z,98868.13
2023-05-16T12:56:35.764Z,98877.06
2023-05-16T12:57:46.745Z,98863.97
2023-05-16T12:59:14.518Z,98866.28
2023-05-16T13:00:23.437Z,98871.66
2023-05-16T13:01:28.363Z,98871.31
2023-05-16T13:11:38.831Z,98873.50
2023-05-16T13:12:43.383Z,98864.25
2023-05-16T13:13:48.554Z,98873.84
2023-05-16T13:14:56.129Z,98868.44
2023-05-16T13:16:01.735Z,98869.66
2023-05-16T13:17:07.970Z,98857.53
2023-05-16T13:18:12.992Z,98862.94
2023-05-16T13:19:17.804Z,98869.72
2023-05-16T13:20:22.178Z,98868.78
2023-05-16T13:21:30.143Z,98866.06
2023-05-16T13:22:34.921Z,98866.06
2023-05-16T13:23:39.217Z,98872.66
2023-05-16T13:24:43.432Z,98858.97
2023-05-16T13:25:49.489Z,98873.16
2023-05-16T13:26:54.866Z,98861.03
2023-05-16T13:28:18.391Z,98860.31
2023-05-16T13:29:23.985Z,98860.31
2023-05-16T13:30:48.258Z,98861.66
2023-05-16T13:31:54.523Z,98865.88
2023-05-16T13:33:00.365Z,98854.91
2023-05-16T13:34:05.295Z,98859.88
2023-05-16T13:35:10.506Z,98863.91
2023-05-16T13:36:29.910Z,98864.75
2023-05-16T13:37:42.399Z,98863.06
2023-05-16T13:38:50.250Z,98868.66
2023-05-16T13:39:58.890Z,98866.31
2023-05-16T13:41:10.040Z,98859.41
2023-05-16T13:42:22.923Z,98858.94
2023-05-16T13:43:31.064Z,98863.19
2023-05-16T13:44:38.420Z,98855.13
2023-05-16T13:45:44.938Z,98850.75
2023-05-16T13:46:50.776Z,98855.13
2023-05-16T13:47:57.137Z,98851.72
2023-05-16T13:49:04.688Z,98852.75
2023-05-16T13:50:10.959Z,98857.81
2023-05-16T13:51:16.052Z,98852.22
2023-05-16T13:52:25.686Z,98849.88
2023-05-16T13:53:46.901Z,98846.34
2023-05-16T13:54:58.100Z,98848.06
2023-05-16T13:56:02.713Z,98841.50
2023-05-16T13:57:08.736Z,98839.00
2023-05-16T13:58:17.620Z,98845.38
2023-05-16T13:59:45.676Z,98842.34
2023-05-16T14:00:53.522Z,98841.13
2023-05-16T14:01:58.558Z,98845.34
2023-05-16T14:03:07.782Z,98841.06
2023-05-16T14:04:17.848Z,98849.16
2023-05-16T14:05:22.642Z,98847.66
2023-05-16T14:06:28.456Z,98852.41
2023-05-16T14:07:48.512Z,98841.13
2023-05-16T14:13:07.668Z,98848.19
2023-05-16T14:14:16.481Z,98844.47
2023-05-16T14:15:21.725Z,98842.66
2023-05-16T14:16:26.818Z,98841.25
2023-05-16T14:17:31.451Z,98847.84
2023-05-16T14:18:35.917Z,98841.97
2023-05-16T14:19:42.702Z,98843.66
2023-05-16T14:20:48.708Z,98836.47
2023-05-16T14:21:53.702Z,98845.38
2023-05-16T14:23:02.889Z,98837.28
2023-05-16T14:24:08.462Z,98840.31
2023-05-16T14:25:12.755Z,98840.31
2023-05-16T14:26:25.563Z,98831.88
2023-05-16T14:27:32.244Z,98835.56
2023-05-16T14:28:37.593Z,98837.91
2023-05-16T14:29:44.513Z,98827.78
2023-05-16T14:30:50.007Z,98821.34
2023-05-16T14:31:58.627Z,98822.56
2023-05-16T14:33:23.853Z,98828.50
2023-05-16T14:34:39.865Z,98825.78
2023-05-16T14:35:47.476Z,98828.94
2023-05-16T14:36:56.184Z,98832.66